sensor_id;sensor_type;location;lat;lon;timestamp;P1;durP1;ratioP1;P2;durP2;ratioP2
6255;SDS011;3161;48.794;9.784;2023-08-06T00:01:12;2.87;;;2.67;;
6255;SDS011;3161;48.794;9.784;2023-08-06T00:03:39;3.30;;;2.90;;
6255;SDS011;3161;48.794;9.784;2023-08-06T00:06:07;3.00;;;2.43;;
6255;SDS011;3161;48.794;9.784;2023-08-06T00:08:34;3.77;;;3.47;;
6255;SDS011;3161;48.794;9.784;2023-08-06T00:11:02;4.13;;;2.67;;
6255;SDS011;3161;48.794;9.784;2023-08-06T00:13:29;3.27;;;3.00;;
6255;SDS011;3161;48.794;9.784;2023-08-06T00:16:07;5.10;;;2.67;;
6255;SDS011;3161;48.794;9.784;2023-08-06T00:18:38;3.73;;;2.83;;
6255;SDS011;3161;48.794;9.784;2023-08-06T00:21:06;3.77;;;2.90;;
6255;SDS011;3161;48.794;9.784;2023-08-06T00:23:34;3.07;;;2.77;;
6255;SDS011;3161;48.794;9.784;2023-08-06T00:26:01;2.67;;;2.40;;
6255;SDS011;3161;48.794;9.784;2023-08-06T00:28:29;4.33;;;2.90;;
6255;SDS011;3161;48.794;9.784;2023-08-06T00:30:56;3.67;;;3.27;;
6255;SDS011;3161;48.794;9.784;2023-08-06T00:33:24;3.50;;;2.90;;
6255;SDS011;3161;48.794;9.784;2023-08-06T00:35:52;4.57;;;2.83;;
6255;SDS011;3161;48.794;9.784;2023-08-06T00:38:19;3.13;;;2.93;;
6255;SDS011;3161;48.794;9.784;2023-08-06T00:40:47;4.00;;;2.90;;
6255;SDS011;3161;48.794;9.784;2023-08-06T00:43:14;3.23;;;2.93;;
6255;SDS011;3161;48.794;9.784;2023-08-06T00:45:42;3.37;;;2.60;;
6255;SDS011;3161;48.794;9.784;2023-08-06T00:48:10;3.20;;;2.90;;
6255;SDS011;3161;48.794;9.784;2023-08-06T00:50:38;3.23;;;2.63;;
6255;SDS011;3161;48.794;9.784;2023-08-06T00:53:06;3.30;;;3.10;;
6255;SDS011;3161;48.794;9.784;2023-08-06T00:55:34;6.17;;;2.40;;
6255;SDS011;3161;48.794;9.784;2023-08-06T00:58:02;5.83;;;2.93;;
6255;SDS011;3161;48.794;9.784;2023-08-06T01:00:30;3.03;;;2.83;;
6255;SDS011;3161;48.794;9.784;2023-08-06T01:02:57;2.97;;;2.77;;
6255;SDS011;3161;48.794;9.784;2023-08-06T01:05:25;3.87;;;2.93;;
6255;SDS011;3161;48.794;9.784;2023-08-06T01:13:32;2.87;;;2.67;;
6255;SDS011;3161;48.794;9.784;2023-08-06T01:16:22;4.80;;;2.90;;
6255;SDS011;3161;48.794;9.784;2023-08-06T01:18:46;3.10;;;2.80;;
6255;SDS011;3161;48.794;9.784;2023-08-06T01:21:15;3.43;;;3.03;;
6255;SDS011;3161;48.794;9.784;2023-08-06T01:23:45;8.67;;;3.20;;
6255;SDS011;3161;48.794;9.784;2023-08-06T01:26:23;4.40;;;3.53;;
6255;SDS011;3161;48.794;9.784;2023-08-06T01:31:34;6.83;;;2.80;;
6255;SDS011;3161;48.794;9.784;2023-08-06T01:34:03;3.00;;;2.80;;
6255;SDS011;3161;48.794;9.784;2023-08-06T01:36:33;4.57;;;3.30;;
6255;SDS011;3161;48.794;9.784;2023-08-06T01:39:01;3.43;;;3.13;;
6255;SDS011;3161;48.794;9.784;2023-08-06T01:41:29;4.17;;;3.00;;
6255;SDS011;3161;48.794;9.784;2023-08-06T01:43:56;4.30;;;3.43;;
6255;SDS011;3161;48.794;9.784;2023-08-06T01:46:24;4.13;;;3.20;;
6255;SDS011;3161;48.794;9.784;2023-08-06T01:48:51;3.83;;;3.27;;
6255;SDS011;3161;48.794;9.784;2023-08-06T01:51:19;5.90;;;3.33;;
6255;SDS011;3161;48.794;9.784;2023-08-06T01:53:46;3.47;;;3.17;;
6255;SDS011;3161;48.794;9.784;2023-08-06T01:56:14;3.47;;;3.17;;
6255;SDS011;3161;48.794;9.784;2023-08-06T01:58:41;5.00;;;2.80;;
6255;SDS011;3161;48.794;9.784;2023-08-06T02:01:09;3.50;;;3.20;;
6255;SDS011;3161;48.794;9.784;2023-08-06T02:03:36;5.83;;;3.30;;
6255;SDS011;3161;48.794;9.784;2023-08-06T02:06:04;3.73;;;3.10;;
6255;SDS011;3161;48.794;9.784;2023-08-06T02:08:31;7.03;;;2.93;;
6255;SDS011;3161;48.794;9.784;2023-08-06T02:10:59;5.93;;;3.20;;
6255;SDS011;3161;48.794;9.784;2023-08-06T02:13:28;6.70;;;3.53;;
6255;SDS011;3161;48.794;9.784;2023-08-06T02:15:55;4.93;;;2.97;;
6255;SDS011;3161;48.794;9.784;2023-08-06T02:18:23;3.33;;;3.10;;
6255;SDS011;3161;48.794;9.784;2023-08-06T02:21:00;3.70;;;3.40;;
6255;SDS011;3161;48.794;9.784;2023-08-06T02:23:27;7.80;;;3.87;;
6255;SDS011;3161;48.794;9.784;2023-08-06T02:26:01;4.13;;;3.57;;
6255;SDS011;3161;48.794;9.784;2023-08-06T02:28:30;4.03;;;3.17;;
6255;SDS011;3161;48.794;9.784;2023-08-06T02:30:58;4.00;;;3.60;;
6255;SDS011;3161;48.794;9.784;2023-08-06T02:33:26;3.77;;;2.97;;
6255;SDS011;3161;48.794;9.784;2023-08-06T02:36:05;3.33;;;2.97;;
6255;SDS011;3161;48.794;9.784;2023-08-06T02:38:35;3.57;;;3.03;;
6255;SDS011;3161;48.794;9.784;2023-08-06T02:40:59;5.10;;;3.80;;
6255;SDS011;3161;48.794;9.784;2023-08-06T02:43:31;4.70;;;4.20;;
6255;SDS011;3161;48.794;9.784;2023-08-06T02:45:59;6.53;;;3.93;;
6255;SDS011;3161;48.794;9.784;2023-08-06T02:48:27;4.47;;;3.53;;
6255;SDS011;3161;48.794;9.784;2023-08-06T02:50:58;4.13;;;3.60;;
6255;SDS011;3161;48.794;9.784;2023-08-06T02:53:26;5.43;;;3.83;;
6255;SDS011;3161;48.794;9.784;2023-08-06T02:55:54;8.77;;;4.30;;
6255;SDS011;3161;48.794;9.784;2023-08-06T02:58:21;4.83;;;3.60;;
6255;SDS011;3161;48.794;9.784;2023-08-06T03:00:58;4.50;;;3.60;;
6255;SDS011;3161;48.794;9.784;2023-08-06T03:03:31;3.47;;;3.27;;
6255;SDS011;3161;48.794;9.784;2023-08-06T03:05:59;4.27;;;3.77;;
6255;SDS011;3161;48.794;9.784;2023-08-06T03:08:28;7.77;;;3.47;;
6255;SDS011;3161;48.794;9.784;2023-08-06T03:10:55;4.20;;;3.80;;
6255;SDS011;3161;48.794;9.784;2023-08-06T03:13:23;4.07;;;3.63;;
6255;SDS011;3161;48.794;9.784;2023-08-06T03:15:54;3.60;;;3.17;;
6255;SDS011;3161;48.794;9.784;2023-08-06T03:18:22;3.97;;;3.57;;
6255;SDS011;3161;48.794;9.784;2023-08-06T03:20:51;4.10;;;3.50;;
6255;SDS011;3161;48.794;9.784;2023-08-06T03:23:19;3.17;;;2.97;;
6255;SDS011;3161;48.794;9.784;2023-08-06T03:25:46;2.50;;;2.30;;
6255;SDS011;3161;48.794;9.784;2023-08-06T03:28:14;2.80;;;2.03;;
6255;SDS011;3161;48.794;9.784;2023-08-06T03:30:42;3.30;;;2.30;;
6255;SDS011;3161;48.794;9.784;2023-08-06T03:33:10;3.20;;;2.50;;
6255;SDS011;3161;48.794;9.784;2023-08-06T03:35:37;3.23;;;2.50;;
6255;SDS011;3161;48.794;9.784;2023-08-06T03:38:05;4.87;;;2.80;;
6255;SDS011;3161;48.794;9.784;2023-08-06T03:40:34;2.73;;;2.53;;
6255;SDS011;3161;48.794;9.784;2023-08-06T03:43:02;5.53;;;2.80;;
6255;SDS011;3161;48.794;9.784;2023-08-06T03:45:29;3.30;;;2.40;;
6255;SDS011;3161;48.794;9.784;2023-08-06T03:47:57;7.03;;;2.60;;
6255;SDS011;3161;48.794;9.784;2023-08-06T03:50:24;3.07;;;2.20;;
6255;SDS011;3161;48.794;9.784;2023-08-06T03:52:52;2.37;;;2.10;;
6255;SDS011;3161;48.794;9.784;2023-08-06T03:55:19;4.27;;;2.10;;
6255;SDS011;3161;48.794;9.784;2023-08-06T03:57:47;2.63;;;1.73;;
6255;SDS011;3161;48.794;9.784;2023-08-06T04:00:15;2.30;;;1.87;;
6255;SDS011;3161;48.794;9.784;2023-08-06T04:02:43;1.93;;;1.70;;
6255;SDS011;3161;48.794;9.784;2023-08-06T04:05:10;1.97;;;1.87;;
6255;SDS011;3161;48.794;9.784;2023-08-06T04:07:38;2.00;;;1.90;;
6255;SDS011;3161;48.794;9.784;2023-08-06T04:10:06;3.53;;;1.90;;
6255;SDS011;3161;48.794;9.784;2023-08-06T04:12:34;2.23;;;2.00;;
6255;SDS011;3161;48.794;9.784;2023-08-06T04:15:05;1.90;;;1.80;;
6255;SDS011;3161;48.794;9.784;2023-08-06T04:17:33;1.97;;;1.80;;
6255;SDS011;3161;48.794;9.784;2023-08-06T04:20:01;2.00;;;1.80;;
6255;SDS011;3161;48.794;9.784;2023-08-06T04:22:29;4.27;;;1.90;;
6255;SDS011;3161;48.794;9.784;2023-08-06T04:24:56;4.53;;;2.00;;
6255;SDS011;3161;48.794;9.784;2023-08-06T04:27:24;4.13;;;2.43;;
6255;SDS011;3161;48.794;9.784;2023-08-06T04:29:51;5.47;;;2.23;;
6255;SDS011;3161;48.794;9.784;2023-08-06T04:32:19;3.43;;;2.03;;
6255;SDS011;3161;48.794;9.784;2023-08-06T04:34:46;1.80;;;1.70;;
6255;SDS011;3161;48.794;9.784;2023-08-06T04:37:14;3.63;;;1.80;;
6255;SDS011;3161;48.794;9.784;2023-08-06T04:39:41;2.27;;;1.90;;
6255;SDS011;3161;48.794;9.784;2023-08-06T04:42:09;5.57;;;2.90;;
6255;SDS011;3161;48.794;9.784;2023-08-06T04:44:36;2.00;;;1.80;;
6255;SDS011;3161;48.794;9.784;2023-08-06T04:47:04;8.70;;;2.30;;
6255;SDS011;3161;48.794;9.784;2023-08-06T04:49:31;2.53;;;1.90;;
6255;SDS011;3161;48.794;9.784;2023-08-06T04:51:59;2.20;;;1.93;;
6255;SDS011;3161;48.794;9.784;2023-08-06T04:54:26;5.77;;;1.93;;
6255;SDS011;3161;48.794;9.784;2023-08-06T04:56:54;2.10;;;1.60;;
6255;SDS011;3161;48.794;9.784;2023-08-06T04:59:21;8.97;;;2.00;;
6255;SDS011;3161;48.794;9.784;2023-08-06T05:01:49;1.50;;;1.40;;
6255;SDS011;3161;48.794;9.784;2023-08-06T05:04:16;5.07;;;1.80;;
6255;SDS011;3161;48.794;9.784;2023-08-06T05:06:44;1.63;;;1.20;;
6255;SDS011;3161;48.794;9.784;2023-08-06T05:09:11;4.23;;;1.73;;
6255;SDS011;3161;48.794;9.784;2023-08-06T05:11:39;3.43;;;2.40;;
6255;SDS011;3161;48.794;9.784;2023-08-06T05:14:06;2.87;;;1.77;;
6255;SDS011;3161;48.794;9.784;2023-08-06T05:16:34;2.30;;;2.00;;
6255;SDS011;3161;48.794;9.784;2023-08-06T05:19:01;3.97;;;2.53;;
6255;SDS011;3161;48.794;9.784;2023-08-06T05:21:29;4.10;;;2.60;;
6255;SDS011;3161;48.794;9.784;2023-08-06T05:23:56;2.60;;;2.37;;
6255;SDS011;3161;48.794;9.784;2023-08-06T05:26:24;1.63;;;1.30;;
6255;SDS011;3161;48.794;9.784;2023-08-06T05:28:51;1.20;;;1.10;;
6255;SDS011;3161;48.794;9.784;2023-08-06T05:31:19;3.10;;;1.00;;
6255;SDS011;3161;48.794;9.784;2023-08-06T05:33:46;2.13;;;0.87;;
6255;SDS011;3161;48.794;9.784;2023-08-06T05:36:14;0.87;;;0.87;;
6255;SDS011;3161;48.794;9.784;2023-08-06T05:38:43;0.63;;;0.63;;
6255;SDS011;3161;48.794;9.784;2023-08-06T05:41:11;0.90;;;0.90;;
6255;SDS011;3161;48.794;9.784;2023-08-06T05:43:38;6.30;;;1.33;;
6255;SDS011;3161;48.794;9.784;2023-08-06T05:46:06;6.13;;;0.90;;
6255;SDS011;3161;48.794;9.784;2023-08-06T05:48:33;1.53;;;0.90;;
6255;SDS011;3161;48.794;9.784;2023-08-06T05:51:01;0.90;;;0.80;;
6255;SDS011;3161;48.794;9.784;2023-08-06T05:53:29;9.10;;;0.97;;
6255;SDS011;3161;48.794;9.784;2023-08-06T05:55:56;2.87;;;1.23;;
6255;SDS011;3161;48.794;9.784;2023-08-06T05:58:24;8.43;;;1.13;;
6255;SDS011;3161;48.794;9.784;2023-08-06T06:00:53;5.30;;;1.17;;
6255;SDS011;3161;48.794;9.784;2023-08-06T06:03:20;1.13;;;0.83;;
6255;SDS011;3161;48.794;9.784;2023-08-06T06:05:48;0.77;;;0.63;;
6255;SDS011;3161;48.794;9.784;2023-08-06T06:08:15;3.60;;;0.90;;
6255;SDS011;3161;48.794;9.784;2023-08-06T06:10:43;2.47;;;1.53;;
6255;SDS011;3161;48.794;9.784;2023-08-06T06:13:10;1.07;;;0.77;;
6255;SDS011;3161;48.794;9.784;2023-08-06T06:15:38;5.07;;;1.30;;
6255;SDS011;3161;48.794;9.784;2023-08-06T06:18:05;1.00;;;0.73;;
6255;SDS011;3161;48.794;9.784;2023-08-06T06:20:33;2.03;;;0.93;;
6255;SDS011;3161;48.794;9.784;2023-08-06T06:23:00;1.23;;;0.87;;
6255;SDS011;3161;48.794;9.784;2023-08-06T06:25:28;5.17;;;1.00;;
6255;SDS011;3161;48.794;9.784;2023-08-06T06:27:55;0.77;;;0.77;;
6255;SDS011;3161;48.794;9.784;2023-08-06T06:30:24;2.17;;;1.13;;
6255;SDS011;3161;48.794;9.784;2023-08-06T06:32:52;1.80;;;1.00;;
6255;SDS011;3161;48.794;9.784;2023-08-06T06:35:20;1.27;;;1.00;;
6255;SDS011;3161;48.794;9.784;2023-08-06T06:37:47;1.63;;;0.90;;
6255;SDS011;3161;48.794;9.784;2023-08-06T06:40:15;5.80;;;0.90;;
6255;SDS011;3161;48.794;9.784;2023-08-06T06:42:42;4.10;;;0.93;;
6255;SDS011;3161;48.794;9.784;2023-08-06T06:45:10;2.77;;;1.00;;
6255;SDS011;3161;48.794;9.784;2023-08-06T06:47:37;2.43;;;0.97;;
6255;SDS011;3161;48.794;9.784;2023-08-06T06:50:05;2.17;;;0.60;;
6255;SDS011;3161;48.794;9.784;2023-08-06T06:52:33;3.00;;;0.87;;
6255;SDS011;3161;48.794;9.784;2023-08-06T06:55:01;1.63;;;0.90;;
6255;SDS011;3161;48.794;9.784;2023-08-06T06:57:29;0.97;;;0.60;;
6255;SDS011;3161;48.794;9.784;2023-08-06T06:59:56;1.60;;;0.80;;
6255;SDS011;3161;48.794;9.784;2023-08-06T07:02:24;2.20;;;0.70;;
6255;SDS011;3161;48.794;9.784;2023-08-06T07:04:51;3.67;;;0.53;;
6255;SDS011;3161;48.794;9.784;2023-08-06T07:07:19;0.83;;;0.40;;
6255;SDS011;3161;48.794;9.784;2023-08-06T07:09:46;3.40;;;0.57;;
6255;SDS011;3161;48.794;9.784;2023-08-06T07:12:14;2.17;;;0.70;;
6255;SDS011;3161;48.794;9.784;2023-08-06T07:14:41;1.43;;;0.80;;
6255;SDS011;3161;48.794;9.784;2023-08-06T07:17:09;1.23;;;0.60;;
6255;SDS011;3161;48.794;9.784;2023-08-06T07:22:23;0.57;;;0.50;;
6255;SDS011;3161;48.794;9.784;2023-08-06T07:24:51;1.17;;;0.60;;
6255;SDS011;3161;48.794;9.784;2023-08-06T07:27:18;4.23;;;0.63;;
6255;SDS011;3161;48.794;9.784;2023-08-06T07:29:46;2.83;;;0.83;;
6255;SDS011;3161;48.794;9.784;2023-08-06T07:32:14;0.87;;;0.60;;
6255;SDS011;3161;48.794;9.784;2023-08-06T07:34:41;1.03;;;0.60;;
6255;SDS011;3161;48.794;9.784;2023-08-06T07:37:09;2.20;;;0.50;;
6255;SDS011;3161;48.794;9.784;2023-08-06T07:39:36;0.73;;;0.40;;
6255;SDS011;3161;48.794;9.784;2023-08-06T07:42:05;2.20;;;0.50;;
6255;SDS011;3161;48.794;9.784;2023-08-06T07:44:33;3.00;;;0.47;;
6255;SDS011;3161;48.794;9.784;2023-08-06T07:47:00;0.60;;;0.40;;
6255;SDS011;3161;48.794;9.784;2023-08-06T07:49:28;1.50;;;0.83;;
6255;SDS011;3161;48.794;9.784;2023-08-06T07:51:55;0.60;;;0.40;;
6255;SDS011;3161;48.794;9.784;2023-08-06T07:54:23;0.93;;;0.30;;
6255;SDS011;3161;48.794;9.784;2023-08-06T07:56:50;4.47;;;0.70;;
6255;SDS011;3161;48.794;9.784;2023-08-06T07:59:18;0.33;;;0.20;;
6255;SDS011;3161;48.794;9.784;2023-08-06T08:01:45;1.30;;;0.40;;
6255;SDS011;3161;48.794;9.784;2023-08-06T08:04:13;1.43;;;1.27;;
6255;SDS011;3161;48.794;9.784;2023-08-06T08:06:41;2.63;;;1.77;;
6255;SDS011;3161;48.794;9.784;2023-08-06T08:09:08;0.80;;;0.80;;
6255;SDS011;3161;48.794;9.784;2023-08-06T08:11:36;2.57;;;1.30;;
6255;SDS011;3161;48.794;9.784;2023-08-06T08:14:04;0.70;;;0.70;;
6255;SDS011;3161;48.794;9.784;2023-08-06T08:16:31;1.57;;;1.20;;
6255;SDS011;3161;48.794;9.784;2023-08-06T08:18:59;0.63;;;0.40;;
6255;SDS011;3161;48.794;9.784;2023-08-06T08:21:27;0.37;;;0.30;;
6255;SDS011;3161;48.794;9.784;2023-08-06T08:23:54;0.30;;;0.30;;
6255;SDS011;3161;48.794;9.784;2023-08-06T08:26:22;2.93;;;0.50;;
6255;SDS011;3161;48.794;9.784;2023-08-06T08:28:50;1.20;;;0.33;;
6255;SDS011;3161;48.794;9.784;2023-08-06T08:31:17;2.53;;;0.40;;
6255;SDS011;3161;48.794;9.784;2023-08-06T08:33:45;0.30;;;0.30;;
6255;SDS011;3161;48.794;9.784;2023-08-06T08:36:12;2.43;;;0.43;;
6255;SDS011;3161;48.794;9.784;2023-08-06T08:38:40;0.37;;;0.30;;
6255;SDS011;3161;48.794;9.784;2023-08-06T08:41:09;0.43;;;0.30;;
6255;SDS011;3161;48.794;9.784;2023-08-06T08:43:37;3.00;;;0.40;;
6255;SDS011;3161;48.794;9.784;2023-08-06T08:46:06;0.50;;;0.40;;
6255;SDS011;3161;48.794;9.784;2023-08-06T08:48:37;0.20;;;0.20;;
6255;SDS011;3161;48.794;9.784;2023-08-06T08:51:05;1.33;;;0.37;;
6255;SDS011;3161;48.794;9.784;2023-08-06T08:53:34;0.50;;;0.30;;
6255;SDS011;3161;48.794;9.784;2023-08-06T08:56:05;1.43;;;0.57;;
6255;SDS011;3161;48.794;9.784;2023-08-06T08:58:32;0.30;;;0.30;;
6255;SDS011;3161;48.794;9.784;2023-08-06T09:01:00;1.10;;;0.40;;
6255;SDS011;3161;48.794;9.784;2023-08-06T09:03:29;0.30;;;0.20;;
6255;SDS011;3161;48.794;9.784;2023-08-06T09:05:57;0.23;;;0.20;;
6255;SDS011;3161;48.794;9.784;2023-08-06T09:08:27;0.43;;;0.40;;
6255;SDS011;3161;48.794;9.784;2023-08-06T09:10:57;2.17;;;0.33;;
6255;SDS011;3161;48.794;9.784;2023-08-06T09:13:27;0.70;;;0.40;;
6255;SDS011;3161;48.794;9.784;2023-08-06T09:15:54;0.47;;;0.30;;
6255;SDS011;3161;48.794;9.784;2023-08-06T09:18:25;0.27;;;0.27;;
6255;SDS011;3161;48.794;9.784;2023-08-06T09:20:55;0.67;;;0.20;;
6255;SDS011;3161;48.794;9.784;2023-08-06T09:23:30;0.20;;;0.20;;
6255;SDS011;3161;48.794;9.784;2023-08-06T09:25:59;0.20;;;0.20;;
6255;SDS011;3161;48.794;9.784;2023-08-06T09:28:37;0.30;;;0.20;;
6255;SDS011;3161;48.794;9.784;2023-08-06T09:31:05;0.20;;;0.20;;
6255;SDS011;3161;48.794;9.784;2023-08-06T09:33:33;0.10;;;0.10;;
6255;SDS011;3161;48.794;9.784;2023-08-06T09:36:07;1.80;;;0.33;;
6255;SDS011;3161;48.794;9.784;2023-08-06T09:38:37;0.20;;;0.20;;
6255;SDS011;3161;48.794;9.784;2023-08-06T09:41:03;0.40;;;0.30;;
6255;SDS011;3161;48.794;9.784;2023-08-06T09:43:39;2.37;;;0.50;;
6255;SDS011;3161;48.794;9.784;2023-08-06T09:46:16;0.30;;;0.30;;
6255;SDS011;3161;48.794;9.784;2023-08-06T09:48:45;0.20;;;0.20;;
6255;SDS011;3161;48.794;9.784;2023-08-06T09:51:13;0.20;;;0.20;;
6255;SDS011;3161;48.794;9.784;2023-08-06T09:53:41;0.30;;;0.20;;
6255;SDS011;3161;48.794;9.784;2023-08-06T09:56:09;0.20;;;0.20;;
6255;SDS011;3161;48.794;9.784;2023-08-06T09:58:40;0.20;;;0.20;;
6255;SDS011;3161;48.794;9.784;2023-08-06T10:01:08;0.23;;;0.20;;
6255;SDS011;3161;48.794;9.784;2023-08-06T10:03:37;0.20;;;0.20;;
6255;SDS011;3161;48.794;9.784;2023-08-06T10:06:07;0.20;;;0.20;;
6255;SDS011;3161;48.794;9.784;2023-08-06T10:08:34;1.07;;;0.33;;
6255;SDS011;3161;48.794;9.784;2023-08-06T10:11:02;0.20;;;0.20;;
6255;SDS011;3161;48.794;9.784;2023-08-06T10:13:32;0.20;;;0.20;;
6255;SDS011;3161;48.794;9.784;2023-08-06T10:16:01;0.30;;;0.30;;
6255;SDS011;3161;48.794;9.784;2023-08-06T10:18:30;0.20;;;0.20;;
6255;SDS011;3161;48.794;9.784;2023-08-06T10:20:59;0.20;;;0.20;;
6255;SDS011;3161;48.794;9.784;2023-08-06T10:23:35;0.87;;;0.30;;
6255;SDS011;3161;48.794;9.784;2023-08-06T10:26:04;0.20;;;0.20;;
6255;SDS011;3161;48.794;9.784;2023-08-06T10:28:36;0.37;;;0.10;;
6255;SDS011;3161;48.794;9.784;2023-08-06T10:31:04;7.97;;;0.20;;
6255;SDS011;3161;48.794;9.784;2023-08-06T10:33:45;1.60;;;0.27;;
6255;SDS011;3161;48.794;9.784;2023-08-06T10:36:14;0.30;;;0.20;;
6255;SDS011;3161;48.794;9.784;2023-08-06T10:38:48;0.20;;;0.20;;
6255;SDS011;3161;48.794;9.784;2023-08-06T10:41:21;0.97;;;0.30;;
6255;SDS011;3161;48.794;9.784;2023-08-06T10:43:48;0.50;;;0.50;;
6255;SDS011;3161;48.794;9.784;2023-08-06T10:46:21;1.80;;;0.20;;
6255;SDS011;3161;48.794;9.784;2023-08-06T10:48:55;0.93;;;0.20;;
6255;SDS011;3161;48.794;9.784;2023-08-06T10:51:23;0.20;;;0.20;;
6255;SDS011;3161;48.794;9.784;2023-08-06T10:53:51;0.40;;;0.30;;
6255;SDS011;3161;48.794;9.784;2023-08-06T10:56:19;1.00;;;0.50;;
6255;SDS011;3161;48.794;9.784;2023-08-06T10:58:48;0.23;;;0.23;;
6255;SDS011;3161;48.794;9.784;2023-08-06T11:01:18;0.53;;;0.30;;
6255;SDS011;3161;48.794;9.784;2023-08-06T11:03:46;0.70;;;0.30;;
6255;SDS011;3161;48.794;9.784;2023-08-06T11:06:19;0.83;;;0.30;;
6255;SDS011;3161;48.794;9.784;2023-08-06T11:08:50;0.30;;;0.30;;
6255;SDS011;3161;48.794;9.784;2023-08-06T11:11:19;0.50;;;0.40;;
6255;SDS011;3161;48.794;9.784;2023-08-06T11:13:48;0.20;;;0.20;;
6255;SDS011;3161;48.794;9.784;2023-08-06T11:16:17;0.23;;;0.23;;
6255;SDS011;3161;48.794;9.784;2023-08-06T11:18:46;0.20;;;0.20;;
6255;SDS011;3161;48.794;9.784;2023-08-06T11:21:14;0.20;;;0.20;;
6255;SDS011;3161;48.794;9.784;2023-08-06T11:23:43;0.20;;;0.20;;
6255;SDS011;3161;48.794;9.784;2023-08-06T11:26:10;1.60;;;0.20;;
6255;SDS011;3161;48.794;9.784;2023-08-06T11:28:38;0.20;;;0.20;;
6255;SDS011;3161;48.794;9.784;2023-08-06T11:31:06;0.20;;;0.20;;
6255;SDS011;3161;48.794;9.784;2023-08-06T11:33:37;0.37;;;0.37;;
6255;SDS011;3161;48.794;9.784;2023-08-06T11:36:04;0.20;;;0.20;;
6255;SDS011;3161;48.794;9.784;2023-08-06T11:38:33;0.27;;;0.27;;
6255;SDS011;3161;48.794;9.784;2023-08-06T11:41:00;0.20;;;0.20;;
6255;SDS011;3161;48.794;9.784;2023-08-06T11:43:29;1.40;;;0.30;;
6255;SDS011;3161;48.794;9.784;2023-08-06T11:45:58;0.10;;;0.10;;
6255;SDS011;3161;48.794;9.784;2023-08-06T11:48:26;3.80;;;0.20;;
6255;SDS011;3161;48.794;9.784;2023-08-06T11:50:56;0.33;;;0.20;;
6255;SDS011;3161;48.794;9.784;2023-08-06T11:53:27;0.30;;;0.30;;
6255;SDS011;3161;48.794;9.784;2023-08-06T11:55:55;0.83;;;0.20;;
6255;SDS011;3161;48.794;9.784;2023-08-06T11:58:22;2.47;;;0.40;;
6255;SDS011;3161;48.794;9.784;2023-08-06T12:00:50;0.30;;;0.30;;
6255;SDS011;3161;48.794;9.784;2023-08-06T12:03:19;1.90;;;0.40;;
6255;SDS011;3161;48.794;9.784;2023-08-06T12:05:46;1.70;;;0.60;;
6255;SDS011;3161;48.794;9.784;2023-08-06T12:08:14;1.27;;;0.37;;
6255;SDS011;3161;48.794;9.784;2023-08-06T12:10:41;0.73;;;0.53;;
6255;SDS011;3161;48.794;9.784;2023-08-06T12:13:09;0.33;;;0.30;;
6255;SDS011;3161;48.794;9.784;2023-08-06T12:15:37;2.70;;;0.40;;
6255;SDS011;3161;48.794;9.784;2023-08-06T12:18:05;0.43;;;0.30;;
6255;SDS011;3161;48.794;9.784;2023-08-06T12:20:33;0.30;;;0.30;;
6255;SDS011;3161;48.794;9.784;2023-08-06T12:23:01;0.40;;;0.40;;
6255;SDS011;3161;48.794;9.784;2023-08-06T12:25:29;3.60;;;0.40;;
6255;SDS011;3161;48.794;9.784;2023-08-06T12:27:56;0.20;;;0.20;;
6255;SDS011;3161;48.794;9.784;2023-08-06T12:30:24;0.63;;;0.37;;
6255;SDS011;3161;48.794;9.784;2023-08-06T12:32:51;1.10;;;0.40;;
6255;SDS011;3161;48.794;9.784;2023-08-06T12:35:19;0.40;;;0.40;;
6255;SDS011;3161;48.794;9.784;2023-08-06T12:37:46;0.50;;;0.50;;
6255;SDS011;3161;48.794;9.784;2023-08-06T12:40:14;0.40;;;0.40;;
6255;SDS011;3161;48.794;9.784;2023-08-06T12:42:41;0.50;;;0.50;;
6255;SDS011;3161;48.794;9.784;2023-08-06T12:45:09;0.57;;;0.57;;
6255;SDS011;3161;48.794;9.784;2023-08-06T12:47:37;1.10;;;0.67;;
6255;SDS011;3161;48.794;9.784;2023-08-06T12:50:04;0.63;;;0.50;;
6255;SDS011;3161;48.794;9.784;2023-08-06T12:52:33;1.30;;;0.60;;
6255;SDS011;3161;48.794;9.784;2023-08-06T12:55:00;1.63;;;0.60;;
6255;SDS011;3161;48.794;9.784;2023-08-06T12:57:28;0.87;;;0.57;;
6255;SDS011;3161;48.794;9.784;2023-08-06T12:59:55;0.97;;;0.80;;
6255;SDS011;3161;48.794;9.784;2023-08-06T13:02:23;7.00;;;1.37;;
6255;SDS011;3161;48.794;9.784;2023-08-06T13:04:51;2.60;;;1.00;;
6255;SDS011;3161;48.794;9.784;2023-08-06T13:07:19;0.50;;;0.50;;
6255;SDS011;3161;48.794;9.784;2023-08-06T13:09:47;2.23;;;0.90;;
6255;SDS011;3161;48.794;9.784;2023-08-06T13:12:14;0.70;;;0.50;;
6255;SDS011;3161;48.794;9.784;2023-08-06T13:14:43;1.30;;;0.50;;
6255;SDS011;3161;48.794;9.784;2023-08-06T13:17:11;3.00;;;0.60;;
6255;SDS011;3161;48.794;9.784;2023-08-06T13:19:39;0.97;;;0.77;;
6255;SDS011;3161;48.794;9.784;2023-08-06T13:22:06;1.20;;;0.67;;
6255;SDS011;3161;48.794;9.784;2023-08-06T13:24:35;3.43;;;0.93;;
6255;SDS011;3161;48.794;9.784;2023-08-06T13:27:02;3.20;;;0.77;;
6255;SDS011;3161;48.794;9.784;2023-08-06T13:29:30;1.20;;;0.70;;
6255;SDS011;3161;48.794;9.784;2023-08-06T13:31:57;2.40;;;0.90;;
6255;SDS011;3161;48.794;9.784;2023-08-06T13:34:25;2.63;;;1.33;;
6255;SDS011;3161;48.794;9.784;2023-08-06T13:36:52;0.80;;;0.80;;
6255;SDS011;3161;48.794;9.784;2023-08-06T13:39:19;0.70;;;0.67;;
6255;SDS011;3161;48.794;9.784;2023-08-06T13:41:47;0.83;;;0.60;;
6255;SDS011;3161;48.794;9.784;2023-08-06T13:44:14;2.77;;;0.70;;
6255;SDS011;3161;48.794;9.784;2023-08-06T13:46:42;0.63;;;0.63;;
6255;SDS011;3161;48.794;9.784;2023-08-06T13:49:09;2.57;;;0.60;;
6255;SDS011;3161;48.794;9.784;2023-08-06T13:51:37;1.33;;;0.60;;
6255;SDS011;3161;48.794;9.784;2023-08-06T13:54:05;1.13;;;0.60;;
6255;SDS011;3161;48.794;9.784;2023-08-06T13:56:32;0.70;;;0.70;;
6255;SDS011;3161;48.794;9.784;2023-08-06T13:59:03;3.00;;;0.73;;
6255;SDS011;3161;48.794;9.784;2023-08-06T14:01:31;1.40;;;0.67;;
6255;SDS011;3161;48.794;9.784;2023-08-06T14:03:58;0.80;;;0.63;;
6255;SDS011;3161;48.794;9.784;2023-08-06T14:06:26;0.73;;;0.50;;
6255;SDS011;3161;48.794;9.784;2023-08-06T14:08:53;0.60;;;0.53;;
6255;SDS011;3161;48.794;9.784;2023-08-06T14:11:21;0.60;;;0.60;;
6255;SDS011;3161;48.794;9.784;2023-08-06T14:13:48;0.60;;;0.60;;
6255;SDS011;3161;48.794;9.784;2023-08-06T14:16:16;1.33;;;0.40;;
6255;SDS011;3161;48.794;9.784;2023-08-06T14:18:44;0.87;;;0.53;;
6255;SDS011;3161;48.794;9.784;2023-08-06T14:21:11;0.47;;;0.47;;
6255;SDS011;3161;48.794;9.784;2023-08-06T14:23:39;0.73;;;0.50;;
6255;SDS011;3161;48.794;9.784;2023-08-06T14:26:07;1.70;;;0.50;;
6255;SDS011;3161;48.794;9.784;2023-08-06T14:28:36;0.93;;;0.50;;
6255;SDS011;3161;48.794;9.784;2023-08-06T14:31:04;0.50;;;0.50;;
6255;SDS011;3161;48.794;9.784;2023-08-06T14:33:32;0.93;;;0.77;;
6255;SDS011;3161;48.794;9.784;2023-08-06T14:35:59;0.97;;;0.70;;
6255;SDS011;3161;48.794;9.784;2023-08-06T14:38:27;2.57;;;0.60;;
6255;SDS011;3161;48.794;9.784;2023-08-06T14:40:55;2.93;;;0.33;;
6255;SDS011;3161;48.794;9.784;2023-08-06T14:43:23;0.60;;;0.50;;
6255;SDS011;3161;48.794;9.784;2023-08-06T14:45:50;0.60;;;0.30;;
6255;SDS011;3161;48.794;9.784;2023-08-06T14:48:18;0.40;;;0.30;;
6255;SDS011;3161;48.794;9.784;2023-08-06T14:50:45;0.63;;;0.57;;
6255;SDS011;3161;48.794;9.784;2023-08-06T14:53:13;0.30;;;0.30;;
6255;SDS011;3161;48.794;9.784;2023-08-06T14:55:40;0.43;;;0.43;;
6255;SDS011;3161;48.794;9.784;2023-08-06T14:58:08;0.50;;;0.50;;
6255;SDS011;3161;48.794;9.784;2023-08-06T15:00:36;0.73;;;0.50;;
6255;SDS011;3161;48.794;9.784;2023-08-06T15:03:03;0.30;;;0.30;;
6255;SDS011;3161;48.794;9.784;2023-08-06T15:05:31;5.97;;;1.47;;
6255;SDS011;3161;48.794;9.784;2023-08-06T15:07:59;0.30;;;0.30;;
6255;SDS011;3161;48.794;9.784;2023-08-06T15:10:27;1.03;;;0.60;;
6255;SDS011;3161;48.794;9.784;2023-08-06T15:12:54;1.20;;;0.50;;
6255;SDS011;3161;48.794;9.784;2023-08-06T15:15:22;0.40;;;0.40;;
6255;SDS011;3161;48.794;9.784;2023-08-06T15:17:50;0.47;;;0.47;;
6255;SDS011;3161;48.794;9.784;2023-08-06T15:20:19;1.00;;;0.40;;
6255;SDS011;3161;48.794;9.784;2023-08-06T15:22:46;0.97;;;0.50;;
6255;SDS011;3161;48.794;9.784;2023-08-06T15:25:14;0.40;;;0.40;;
6255;SDS011;3161;48.794;9.784;2023-08-06T15:27:41;1.63;;;0.50;;
6255;SDS011;3161;48.794;9.784;2023-08-06T15:30:10;1.43;;;0.50;;
6255;SDS011;3161;48.794;9.784;2023-08-06T15:32:37;6.40;;;0.50;;